Time;durP1;ratioP1;P1;durP2;ratioP2;P2;SDS_P1;SDS_P2;PMS_P1;PMS_P2;Temp;Humidity;BMP_temperature;BMP_pressure;BME280_temperature;BME280_humidity;BME280_pressure;Samples;Min_cycle;Max_cycle;Signal;HPM_P1;HPM_P2
2023/10/30 00:01:14;;;;;;;0.50;0.10;;;13.30;1.00;;;;;;4915011;29;20455;-74
2023/10/30 00:03:41;;;;;;;0.50;0.10;;;13.30;1.00;;;;;;4916225;29;20479;-72
2023/10/30 00:06:09;;;;;;;0.50;0.40;;;13.30;1.00;;;;;;4909410;29;20462;-73
2023/10/30 00:08:37;;;;;;;1.07;0.43;;;13.20;1.00;;;;;;4915408;29;20487;-73
2023/10/30 00:11:05;;;;;;;0.83;0.67;;;13.20;1.00;;;;;;4915626;29;20455;-73
2023/10/30 00:13:35;;;;;;;0.90;0.20;;;13.30;1.00;;;;;;4916094;29;21205;-73
2023/10/30 00:16:03;;;;;;;0.50;0.10;;;13.20;1.00;;;;;;4916282;29;21033;-72
2023/10/30 00:18:32;;;;;;;0.60;0.40;;;13.20;1.00;;;;;;4915837;29;20446;-72
2023/10/30 00:21:00;;;;;;;0.50;0.20;;;13.20;1.00;;;;;;4914856;29;20499;-72
2023/10/30 00:23:28;;;;;;;2.00;1.90;;;13.20;1.00;;;;;;4921134;29;20511;-74
2023/10/30 00:25:57;;;;;;;0.50;0.30;;;13.30;1.00;;;;;;4925987;29;20981;-73
2023/10/30 00:28:27;;;;;;;0.50;0.20;;;13.30;1.00;;;;;;4914055;29;20490;-74
2023/10/30 00:30:57;;;;;;;0.50;0.10;;;13.30;1.00;;;;;;4917064;29;20502;-73
2023/10/30 00:33:24;;;;;;;0.50;0.10;;;13.30;1.00;;;;;;4909611;29;20475;-73
2023/10/30 00:35:52;;;;;;;0.50;0.10;;;13.30;1.00;;;;;;4916249;29;20505;-73
2023/10/30 00:38:20;;;;;;;0.50;0.20;;;13.30;1.00;;;;;;4915657;29;20541;-73
2023/10/30 00:40:48;;;;;;;0.50;0.10;;;13.30;1.00;;;;;;4915077;29;20545;-73
2023/10/30 00:43:16;;;;;;;0.50;0.10;;;13.30;1.00;;;;;;4914048;29;20519;-73
2023/10/30 00:45:44;;;;;;;0.50;0.10;;;13.30;1.00;;;;;;4915520;29;20538;-74
2023/10/30 00:48:13;;;;;;;0.50;0.10;;;13.30;1.00;;;;;;4909946;29;20496;-74
2023/10/30 00:50:41;;;;;;;1.83;0.50;;;13.40;1.00;;;;;;4910793;29;20917;-74
2023/10/30 00:53:09;;;;;;;0.50;0.10;;;13.40;1.00;;;;;;4915121;29;20549;-73
2023/10/30 00:55:38;;;;;;;0.50;0.10;;;13.40;1.00;;;;;;4914987;29;20543;-74
2023/10/30 00:58:07;;;;;;;0.50;0.10;;;13.50;1.00;;;;;;4913962;29;20943;-73
2023/10/30 05:01:08;;;;;;;0.50;0.10;;;13.50;1.00;;;;;;5583162;23;20605;-74
2023/10/30 05:03:36;;;;;;;0.50;0.10;;;13.50;1.00;;;;;;4906179;29;20508;-73
2023/10/30 05:06:05;;;;;;;0.50;0.10;;;13.40;1.00;;;;;;4911531;29;20947;-73
2023/10/30 05:08:33;;;;;;;0.50;0.10;;;13.40;1.00;;;;;;4914663;29;20594;-73
2023/10/30 05:11:01;;;;;;;0.50;0.10;;;13.30;1.00;;;;;;4915993;29;21007;-74
2023/10/30 05:13:29;;;;;;;0.50;0.10;;;13.30;1.00;;;;;;4915689;29;20457;-75
2023/10/30 05:15:57;;;;;;;0.50;0.10;;;13.30;1.00;;;;;;4902588;29;20978;-74
2023/10/30 05:18:29;;;;;;;0.50;0.10;;;13.30;1.00;;;;;;4914897;29;20456;-74
2023/10/30 05:20:57;;;;;;;0.50;0.10;;;13.30;1.00;;;;;;4916536;29;20545;-74
2023/10/30 05:23:25;;;;;;;0.50;0.10;;;13.30;1.00;;;;;;4888523;29;20552;-75
2023/10/30 05:25:53;;;;;;;0.50;0.10;;;13.30;1.00;;;;;;4906372;29;20496;-74
2023/10/30 05:28:21;;;;;;;0.50;0.10;;;13.30;1.00;;;;;;4908789;29;20494;-72
2023/10/30 05:30:53;;;;;;;0.50;0.10;;;13.40;1.00;;;;;;4916722;29;20470;-74
2023/10/30 05:33:21;;;;;;;0.50;0.10;;;13.40;1.00;;;;;;4908843;29;20963;-74
2023/10/30 05:35:53;;;;;;;0.50;0.10;;;13.20;1.00;;;;;;4904852;29;21194;-73
2023/10/30 05:38:22;;;;;;;0.50;0.10;;;13.20;1.00;;;;;;4919145;29;20499;-72
2023/10/30 05:40:50;;;;;;;0.50;0.10;;;13.30;1.00;;;;;;4914202;29;21002;-75
2023/10/30 05:43:18;;;;;;;0.50;0.10;;;13.30;1.00;;;;;;4908600;29;20466;-73
2023/10/30 05:45:46;;;;;;;0.50;0.10;;;13.30;1.00;;;;;;4908762;29;20533;-73
2023/10/30 05:48:14;;;;;;;0.50;0.10;;;13.30;1.00;;;;;;4921807;29;20483;-73
2023/10/30 05:50:42;;;;;;;0.50;0.10;;;13.20;1.00;;;;;;4914842;29;20515;-73
2023/10/30 05:53:12;;;;;;;0.50;0.10;;;12.90;1.00;;;;;;4897129;29;20558;-72
2023/10/30 05:55:40;;;;;;;0.60;0.30;;;12.90;1.00;;;;;;4895547;29;20464;-74
2023/10/30 05:58:08;;;;;;;0.50;0.10;;;12.90;1.00;;;;;;4910304;29;20969;-73
2023/10/30 06:00:36;;;;;;;0.60;0.50;;;12.90;1.00;;;;;;4902094;29;20504;-73
2023/10/30 06:03:04;;;;;;;0.50;0.10;;;12.90;1.00;;;;;;4901983;29;20453;-75
2023/10/30 06:05:32;;;;;;;0.50;0.10;;;12.80;1.00;;;;;;4905123;29;20468;-74
2023/10/30 06:08:00;;;;;;;0.50;0.10;;;12.90;1.00;;;;;;4907893;29;20490;-72
2023/10/30 06:10:30;;;;;;;0.50;0.10;;;12.90;1.00;;;;;;4893383;29;20523;-73
2023/10/30 06:12:58;;;;;;;0.50;0.10;;;12.90;1.00;;;;;;4896958;29;20451;-74
2023/10/30 06:15:26;;;;;;;0.50;0.10;;;12.90;1.00;;;;;;4908555;29;20478;-74
2023/10/30 06:17:54;;;;;;;0.50;0.10;;;;;;;;;;4912603;29;20496;-73
2023/10/30 06:20:22;;;;;;;0.50;0.10;;;13.00;1.00;;;;;;4902859;29;20454;-74
2023/10/30 06:22:50;;;;;;;0.50;0.10;;;13.10;1.00;;;;;;4919875;29;20446;-74
2023/10/30 06:25:18;;;;;;;0.50;0.10;;;13.10;1.00;;;;;;4912944;29;20529;-73
2023/10/30 06:27:47;;;;;;;0.50;0.10;;;13.20;1.00;;;;;;4899714;29;21009;-74
2023/10/30 06:30:17;;;;;;;0.60;0.20;;;13.20;1.00;;;;;;4899362;29;20857;-73
2023/10/30 06:32:45;;;;;;;0.50;0.10;;;13.10;1.00;;;;;;4910634;29;20515;-74
2023/10/30 06:35:13;;;;;;;0.50;0.10;;;13.20;1.00;;;;;;4911157;29;20485;-74
2023/10/30 06:37:41;;;;;;;0.50;0.10;;;13.20;1.00;;;;;;4915484;29;20446;-73
2023/10/30 06:40:09;;;;;;;0.50;0.10;;;;;;;;;;4903630;29;20809;-73
2023/10/30 06:42:37;;;;;;;0.50;0.10;;;13.20;1.00;;;;;;4900950;29;21054;-74
2023/10/30 06:45:08;;;;;;;0.50;0.10;;;13.20;1.00;;;;;;4894251;29;20450;-73
2023/10/30 06:47:35;;;;;;;0.60;0.20;;;13.10;1.00;;;;;;4901990;29;20469;-72
2023/10/30 06:50:04;;;;;;;1.47;0.97;;;13.20;1.00;;;;;;4898520;29;20581;-73
2023/10/30 06:52:32;;;;;;;0.50;0.10;;;13.00;1.00;;;;;;4894673;29;20531;-73
2023/10/30 06:55:00;;;;;;;0.50;0.10;;;13.10;1.00;;;;;;4900637;29;20524;-72
2023/10/30 06:57:28;;;;;;;0.50;0.10;;;13.10;1.00;;;;;;4898916;29;20462;-73
2023/10/30 06:59:57;;;;;;;0.50;0.10;;;13.20;1.00;;;;;;4910133;29;20476;-74
2023/10/30 07:02:26;;;;;;;0.50;0.10;;;13.20;1.00;;;;;;4917066;29;20478;-73
2023/10/30 07:04:54;;;;;;;0.50;0.10;;;13.20;1.00;;;;;;4917727;29;20473;-73
2023/10/30 07:07:22;;;;;;;0.50;0.10;;;13.20;1.00;;;;;;4917729;29;20554;-73
2023/10/30 07:09:50;;;;;;;0.50;0.10;;;13.20;1.00;;;;;;4902402;29;20491;-72
2023/10/30 07:12:18;;;;;;;0.50;0.10;;;13.30;1.00;;;;;;4886566;29;20481;-72
2023/10/30 07:14:46;;;;;;;0.50;0.10;;;13.50;1.00;;;;;;4887568;29;20943;-74
2023/10/30 07:17:14;;;;;;;0.50;0.10;;;13.20;1.00;;;;;;4894594;29;20526;-74
2023/10/30 07:19:43;;;;;;;0.50;0.10;;;13.20;1.00;;;;;;4895231;29;20454;-72
2023/10/30 07:22:12;;;;;;;0.50;0.10;;;13.20;1.00;;;;;;4896420;29;20555;-74
2023/10/30 07:24:40;;;;;;;0.50;0.10;;;13.10;1.00;;;;;;4881932;29;20567;-74
2023/10/30 07:27:08;;;;;;;0.50;0.10;;;13.10;1.00;;;;;;4880239;29;20445;-73
2023/10/30 07:29:36;;;;;;;0.50;0.10;;;13.20;1.00;;;;;;4879567;29;20551;-74
2023/10/30 07:32:04;;;;;;;0.50;0.10;;;13.20;1.00;;;;;;4878610;29;20472;-74
2023/10/30 07:34:32;;;;;;;0.50;0.10;;;13.20;1.00;;;;;;4871768;29;20455;-72
2023/10/30 07:37:01;;;;;;;0.50;0.10;;;13.10;1.00;;;;;;4881558;29;20482;-73
2023/10/30 07:39:29;;;;;;;0.50;0.10;;;13.10;1.00;;;;;;4880061;29;20445;-72
2023/10/30 07:41:57;;;;;;;0.50;0.10;;;13.10;1.00;;;;;;4874625;29;20856;-72
2023/10/30 07:44:25;;;;;;;0.50;0.20;;;13.20;1.00;;;;;;4879904;29;20539;-74
2023/10/30 07:46:53;;;;;;;0.60;0.20;;;13.20;1.00;;;;;;4880533;29;20455;-74
2023/10/30 07:49:21;;;;;;;0.50;0.20;;;13.10;1.00;;;;;;4885196;29;20491;-74
2023/10/30 07:51:49;;;;;;;0.50;0.10;;;13.10;1.00;;;;;;4879092;29;20558;-73
2023/10/30 07:54:18;;;;;;;0.50;0.10;;;13.20;1.00;;;;;;4879686;29;20457;-74
2023/10/30 07:56:46;;;;;;;0.50;0.10;;;13.20;1.00;;;;;;4879668;29;20552;-73
2023/10/30 07:59:14;;;;;;;0.50;0.10;;;13.20;1.00;;;;;;4878989;29;20452;-73
2023/10/30 08:01:44;;;;;;;0.50;0.10;;;13.30;1.00;;;;;;4878750;29;20995;-72
2023/10/30 08:04:12;;;;;;;0.50;0.10;;;13.30;1.00;;;;;;4863907;29;20495;-71
2023/10/30 08:06:40;;;;;;;0.50;0.10;;;13.30;1.00;;;;;;4879012;29;20944;-72
2023/10/30 08:09:08;;;;;;;0.50;0.10;;;13.30;1.00;;;;;;4876680;29;20496;-72
2023/10/30 08:11:37;;;;;;;0.50;0.10;;;13.30;1.00;;;;;;4877834;29;20509;-72
2023/10/30 08:14:05;;;;;;;0.50;0.10;;;13.30;1.00;;;;;;4872050;29;20469;-72
2023/10/30 08:16:34;;;;;;;0.50;0.10;;;13.30;1.00;;;;;;4877735;29;20970;-71
2023/10/30 08:19:02;;;;;;;0.50;0.10;;;13.30;1.00;;;;;;4876285;29;20558;-71
2023/10/30 08:21:30;;;;;;;0.50;0.10;;;13.30;1.00;;;;;;4876209;29;20556;-72
2023/10/30 08:23:58;;;;;;;0.50;0.10;;;13.30;1.00;;;;;;4878478;29;20599;-73
2023/10/30 08:26:28;;;;;;;0.50;0.10;;;13.30;1.00;;;;;;4879146;29;20473;-72
2023/10/30 08:28:57;;;;;;;0.50;0.10;;;13.30;1.00;;;;;;4865583;29;20953;-72
2023/10/30 08:31:25;;;;;;;0.50;0.10;;;13.20;1.00;;;;;;4860010;29;20558;-70
2023/10/30 08:33:54;;;;;;;0.50;0.10;;;13.20;1.00;;;;;;4860123;29;20541;-71
2023/10/30 08:36:22;;;;;;;0.50;0.10;;;;;;;;;;4883956;29;20499;-72
2023/10/30 08:38:50;;;;;;;0.50;0.10;;;13.30;1.00;;;;;;4873092;29;20531;-71
2023/10/30 08:41:23;;;;;;;0.50;0.10;;;13.30;1.00;;;;;;4864361;29;20508;-72
2023/10/30 08:43:51;;;;;;;0.50;0.10;;;13.30;1.00;;;;;;4863320;29;20468;-72
2023/10/30 08:46:22;;;;;;;0.50;0.10;;;13.30;1.00;;;;;;4869070;29;21100;-72
2023/10/30 08:48:51;;;;;;;0.50;0.10;;;13.30;1.00;;;;;;4864908;29;20462;-72
2023/10/30 08:51:19;;;;;;;0.50;0.10;;;13.40;1.00;;;;;;4876161;29;20487;-72
2023/10/30 08:53:47;;;;;;;0.50;0.10;;;13.40;1.00;;;;;;4877942;29;20450;-72
2023/10/30 08:56:15;;;;;;;0.50;0.10;;;13.40;1.00;;;;;;4873342;29;20463;-73
2023/10/30 08:58:43;;;;;;;0.50;0.10;;;13.50;1.00;;;;;;4859633;29;20486;-73
2023/10/30 09:01:11;;;;;;;0.50;0.10;;;13.50;1.00;;;;;;4859413;29;20517;-71
2023/10/30 09:03:41;;;;;;;0.50;0.10;;;13.50;1.00;;;;;;4859976;29;20470;-74
2023/10/30 09:06:09;;;;;;;0.50;0.10;;;13.60;1.00;;;;;;4859663;29;20457;-72
2023/10/30 09:08:37;;;;;;;0.50;0.10;;;13.60;1.00;;;;;;4860388;29;20455;-74
2023/10/30 09:11:05;;;;;;;0.50;0.10;;;13.70;1.00;;;;;;4859873;29;20528;-72
2023/10/30 09:13:33;;;;;;;0.50;0.10;;;13.70;1.00;;;;;;4866228;29;20574;-72
2023/10/30 09:16:01;;;;;;;0.50;0.10;;;13.70;1.00;;;;;;4878609;29;20454;-72
2023/10/30 09:18:29;;;;;;;0.50;0.10;;;13.80;1.00;;;;;;4885807;29;20452;-72
2023/10/30 09:20:58;;;;;;;0.50;0.10;;;13.90;1.00;;;;;;4889531;29;20478;-73
2023/10/30 09:23:26;;;;;;;0.50;0.10;;;13.90;1.00;;;;;;4888678;29;20472;-72
2023/10/30 09:25:55;;;;;;;0.50;0.10;;;13.90;1.00;;;;;;4885324;29;20828;-72
2023/10/30 09:28:22;;;;;;;0.50;0.10;;;14.00;1.00;;;;;;4877823;29;20536;-72
2023/10/30 09:30:53;;;;;;;0.50;0.10;;;14.00;1.00;;;;;;4877960;29;20496;-72
2023/10/30 09:33:21;;;;;;;0.50;0.10;;;14.00;1.00;;;;;;4884698;29;20874;-72
2023/10/30 09:35:49;;;;;;;0.50;0.10;;;14.00;1.00;;;;;;4894592;29;20457;-72
2023/10/30 09:38:18;;;;;;;0.50;0.10;;;14.10;1.00;;;;;;4890393;29;20952;-73
2023/10/30 09:40:51;;;;;;;0.50;0.10;;;14.10;1.00;;;;;;4879932;29;20469;-73
2023/10/30 09:43:20;;;;;;;0.50;0.10;;;14.10;1.00;;;;;;4882507;29;20453;-73
2023/10/30 09:45:51;;;;;;;0.50;0.10;;;14.20;1.00;;;;;;4893521;29;20514;-73
2023/10/30 09:48:19;;;;;;;0.50;0.10;;;14.30;1.00;;;;;;4884519;29;20464;-72
2023/10/30 09:50:48;;;;;;;0.50;0.10;;;14.30;1.00;;;;;;4896044;29;20500;-72
2023/10/30 09:53:18;;;;;;;0.50;0.10;;;14.20;1.00;;;;;;4890824;29;20540;-72
2023/10/30 09:55:48;;;;;;;0.50;0.10;;;14.20;1.00;;;;;;4885726;29;20479;-73
2023/10/30 09:58:17;;;;;;;0.50;0.10;;;14.20;1.00;;;;;;4885167;29;20461;-72
2023/10/30 10:00:46;;;;;;;0.50;0.10;;;14.20;1.00;;;;;;4884729;29;20553;-73
2023/10/30 10:03:14;;;;;;;0.50;0.10;;;14.20;1.00;;;;;;4891136;29;20956;-72
2023/10/30 10:05:42;;;;;;;0.50;0.10;;;14.20;1.00;;;;;;4896607;29;20478;-72
2023/10/30 10:08:11;;;;;;;0.50;0.10;;;14.20;1.00;;;;;;4891352;29;20485;-72
2023/10/30 10:10:57;;;;;;;0.50;0.10;;;14.20;1.00;;;;;;4878594;29;20495;-71
2023/10/30 10:13:29;;;;;;;0.50;0.10;;;14.20;1.00;;;;;;4881020;29;20517;-73
2023/10/30 10:15:57;;;;;;;0.50;0.10;;;14.10;1.00;;;;;;4877421;29;20460;-73
2023/10/30 10:18:26;;;;;;;0.50;0.10;;;14.20;1.00;;;;;;4892393;29;20464;-73
2023/10/30 10:20:56;;;;;;;0.50;0.10;;;12.20;1.00;;;;;;4887782;29;20491;-73
2023/10/30 10:23:24;;;;;;;0.50;0.10;;;14.20;1.00;;;;;;4889293;29;20532;-72
2023/10/30 10:25:57;;;;;;;0.50;0.10;;;14.40;1.00;;;;;;4895269;29;20940;-73
2023/10/30 10:28:25;;;;;;;0.60;0.37;;;14.40;1.00;;;;;;4896011;29;21015;-73
2023/10/30 10:30:54;;;;;;;0.50;0.10;;;14.40;1.00;;;;;;4885084;29;20504;-72
2023/10/30 10:33:24;;;;;;;0.50;0.10;;;14.40;1.00;;;;;;4891578;29;20800;-72
2023/10/30 10:35:54;;;;;;;0.60;0.10;;;;;;;;;;4896131;29;20474;-73
2023/10/30 10:38:22;;;;;;;0.50;0.10;;;14.60;1.00;;;;;;4888200;29;20530;-71
2023/10/30 10:40:51;;;;;;;0.50;0.10;;;14.60;1.00;;;;;;4887815;29;21025;-72
2023/10/30 10:43:22;;;;;;;0.50;0.10;;;14.60;1.00;;;;;;4889810;29;20553;-72
2023/10/30 10:45:52;;;;;;;0.60;0.10;;;14.70;1.00;;;;;;4894618;29;20552;-72
2023/10/30 10:48:21;;;;;;;0.50;0.10;;;14.60;1.00;;;;;;4890398;29;20512;-72
2023/10/30 10:50:49;;;;;;;0.57;0.10;;;14.60;1.00;;;;;;4888896;29;20502;-73
2023/10/30 10:53:20;;;;;;;0.50;0.10;;;14.70;1.00;;;;;;4897790;29;20966;-73
2023/10/30 10:55:49;;;;;;;0.50;0.20;;;14.60;1.00;;;;;;4897074;29;20450;-72
2023/10/30 10:58:26;;;;;;;0.50;0.10;;;14.70;1.00;;;;;;4887888;29;20878;-72
2023/10/30 11:00:54;;;;;;;0.50;0.10;;;14.70;1.00;;;;;;4898178;29;20547;-72
2023/10/30 11:03:23;;;;;;;0.50;0.10;;;14.80;1.00;;;;;;4898720;29;20968;-73
2023/10/30 11:05:53;;;;;;;0.50;0.10;;;14.80;1.00;;;;;;4888715;29;20464;-72
2023/10/30 11:08:42;;;;;;;0.50;0.10;;;14.80;1.00;;;;;;4887849;29;20461;-72
2023/10/30 11:11:17;;;;;;;0.60;0.20;;;14.80;1.00;;;;;;4874208;29;20551;-73
2023/10/30 11:14:02;;;;;;;0.60;0.10;;;14.80;1.00;;;;;;4881516;29;20540;-72
2023/10/30 11:16:46;;;;;;;0.50;0.10;;;14.70;1.00;;;;;;4890381;29;20866;-72
2023/10/30 11:19:13;;;;;;;0.57;0.10;;;14.80;1.00;;;;;;4881540;29;20979;-73
2023/10/30 11:21:41;;;;;;;0.50;0.10;;;14.80;1.00;;;;;;4895675;29;20472;-73
2023/10/30 11:24:10;;;;;;;0.60;0.10;;;14.80;1.00;;;;;;4890751;29;20455;-73
2023/10/30 11:26:39;;;;;;;0.60;0.10;;;14.80;1.00;;;;;;4894413;29;21042;-72
2023/10/30 11:29:13;;;;;;;0.60;0.10;;;14.80;1.00;;;;;;4905152;29;20479;-73
2023/10/30 11:32:03;;;;;;;0.60;0.10;;;14.90;1.00;;;;;;4899310;29;20564;-73
2023/10/30 11:34:33;;;;;;;0.60;0.10;;;14.80;1.00;;;;;;4897799;29;20452;-73
2023/10/30 11:37:04;;;;;;;0.60;0.10;;;14.90;1.00;;;;;;4882139;29;20477;-72
2023/10/30 11:39:37;;;;;;;0.50;0.10;;;14.90;1.00;;;;;;4879372;29;20492;-72
2023/10/30 11:42:29;;;;;;;0.53;0.10;;;14.90;1.00;;;;;;4883517;29;20475;-72
2023/10/30 11:45:22;;;;;;;0.50;0.10;;;14.80;1.00;;;;;;4890374;29;20456;-73
2023/10/30 11:47:59;;;;;;;0.50;0.10;;;14.90;1.00;;;;;;4896718;29;20860;-72
2023/10/30 11:50:28;;;;;;;0.50;0.20;;;15.60;1.00;;;;;;4887327;29;20775;-73
2023/10/30 11:52:59;;;;;;;0.60;0.10;;;15.00;1.00;;;;;;4889879;29;20496;-73
2023/10/30 11:55:30;;;;;;;0.50;0.10;;;15.00;1.00;;;;;;4884661;29;20461;-73
2023/10/30 11:57:59;;;;;;;0.60;0.10;;;15.10;1.00;;;;;;4888151;29;20514;-73
2023/10/30 12:00:29;;;;;;;0.50;0.10;;;15.10;1.00;;;;;;4893778;29;20445;-73
2023/10/30 12:02:57;;;;;;;0.57;0.10;;;15.10;1.00;;;;;;4891026;29;20548;-73
2023/10/30 12:05:26;;;;;;;0.60;0.10;;;15.20;1.00;;;;;;4884490;29;20490;-72
2023/10/30 12:07:54;;;;;;;0.53;0.10;;;15.20;1.00;;;;;;4881781;29;20493;-72
2023/10/30 12:10:23;;;;;;;0.60;0.20;;;11.50;1.00;;;;;;4893042;29;20479;-73
2023/10/30 12:12:51;;;;;;;0.60;0.10;;;15.20;1.00;;;;;;4890270;29;20987;-73
2023/10/30 12:15:20;;;;;;;0.60;0.10;;;15.20;1.00;;;;;;4884369;29;20539;-73
2023/10/30 12:17:50;;;;;;;0.50;0.10;;;15.30;1.00;;;;;;4880215;29;20454;-73
2023/10/30 12:20:19;;;;;;;0.60;0.10;;;15.40;1.00;;;;;;4897655;29;20452;-72
2023/10/30 12:22:47;;;;;;;0.60;0.10;;;15.40;1.00;;;;;;4889375;29;20456;-73
2023/10/30 12:25:16;;;;;;;0.60;0.10;;;15.40;1.00;;;;;;4889816;29;20558;-72
2023/10/30 12:27:44;;;;;;;0.60;0.10;;;15.40;1.00;;;;;;4890091;29;20516;-72
2023/10/30 12:30:14;;;;;;;0.60;0.10;;;15.40;1.00;;;;;;4889947;29;20456;-73
2023/10/30 12:32:42;;;;;;;0.50;0.10;;;15.40;1.00;;;;;;4889591;29;20564;-73
2023/10/30 12:35:14;;;;;;;0.60;0.10;;;15.40;1.00;;;;;;4897680;29;20457;-73
2023/10/30 12:37:42;;;;;;;0.60;0.10;;;15.30;1.00;;;;;;4896915;29;20456;-72
2023/10/30 12:40:13;;;;;;;0.60;0.10;;;15.50;1.00;;;;;;4886844;29;20442;-73
2023/10/30 12:42:42;;;;;;;0.57;0.10;;;15.40;1.00;;;;;;4887129;29;20455;-73
2023/10/30 12:45:12;;;;;;;0.60;0.10;;;15.50;1.00;;;;;;4886098;29;20491;-73
2023/10/30 12:47:40;;;;;;;0.60;0.10;;;15.50;1.00;;;;;;4886937;29;20449;-72
2023/10/30 12:50:10;;;;;;;0.60;0.10;;;15.40;1.00;;;;;;4870694;29;20465;-73
2023/10/30 12:52:47;;;;;;;0.60;0.20;;;15.40;1.00;;;;;;4878665;29;20542;-73
2023/10/30 12:55:19;;;;;;;0.60;0.10;;;;;;;;;;4864538;29;20449;-74
2023/10/30 12:57:47;;;;;;;0.60;0.10;;;15.40;1.00;;;;;;4894535;29;20480;-72
2023/10/30 13:00:15;;;;;;;0.60;0.37;;;15.50;1.00;;;;;;4883954;29;20483;-73
2023/10/30 13:02:43;;;;;;;0.60;0.10;;;15.50;1.00;;;;;;4885967;29;20883;-73
2023/10/30 13:05:11;;;;;;;0.60;0.10;;;15.60;1.00;;;;;;4890526;29;20452;-72
2023/10/30 13:07:41;;;;;;;0.60;0.10;;;15.50;1.00;;;;;;4897193;29;20451;-73
2023/10/30 13:10:10;;;;;;;0.60;0.10;;;15.60;1.00;;;;;;4882451;29;20453;-73
2023/10/30 13:12:37;;;;;;;0.60;0.10;;;15.60;1.00;;;;;;4888328;29;20541;-73
2023/10/30 13:15:06;;;;;;;0.60;0.10;;;15.60;1.00;;;;;;4897283;29;20571;-73
2023/10/30 13:17:34;;;;;;;0.60;0.10;;;15.60;1.00;;;;;;4896598;29;20455;-72
2023/10/30 13:20:05;;;;;;;0.60;0.10;;;15.50;1.00;;;;;;4885869;29;20464;-72
2023/10/30 13:22:33;;;;;;;0.60;0.10;;;15.50;1.00;;;;;;4885157;29;20465;-73
2023/10/30 13:25:03;;;;;;;0.60;0.10;;;;;;;;;;4885697;29;20461;-72
2023/10/30 13:27:32;;;;;;;0.60;0.10;;;15.60;1.00;;;;;;4892229;29;20441;-73
2023/10/30 13:30:00;;;;;;;0.60;0.10;;;15.50;1.00;;;;;;4881140;29;20518;-73
2023/10/30 13:32:32;;;;;;;0.60;0.10;;;15.60;1.00;;;;;;4888307;29;20493;-73
2023/10/30 13:35:00;;;;;;;0.70;0.40;;;15.50;1.00;;;;;;4888891;29;20541;-73
2023/10/30 13:37:28;;;;;;;0.57;0.10;;;15.50;1.00;;;;;;4896709;29;20453;-73
2023/10/30 13:39:56;;;;;;;0.60;0.10;;;15.40;1.00;;;;;;4895949;29;20968;-73
2023/10/30 13:42:25;;;;;;;0.60;0.10;;;15.40;1.00;;;;;;4896835;29;20579;-73
2023/10/30 13:44:53;;;;;;;0.60;0.10;;;15.40;1.00;;;;;;4896928;29;20525;-73
2023/10/30 13:47:21;;;;;;;0.60;0.10;;;15.40;1.00;;;;;;4883843;29;20460;-73
2023/10/30 13:49:49;;;;;;;0.60;0.10;;;15.40;1.00;;;;;;4886744;29;21027;-73
2023/10/30 13:52:17;;;;;;;0.60;0.10;;;15.30;1.00;;;;;;4884138;29;20497;-72
2023/10/30 13:54:46;;;;;;;0.60;0.10;;;15.30;1.00;;;;;;4878183;29;20515;-73
2023/10/30 13:57:14;;;;;;;0.60;0.10;;;15.30;1.00;;;;;;4884162;29;20808;-72
2023/10/30 13:59:44;;;;;;;0.60;0.10;;;15.30;1.00;;;;;;4885693;29;20460;-72
2023/10/30 14:02:12;;;;;;;0.60;0.10;;;15.30;1.00;;;;;;4885466;29;20526;-74
2023/10/30 14:04:40;;;;;;;0.60;0.10;;;15.40;1.00;;;;;;4885583;29;20474;-73
2023/10/30 14:07:08;;;;;;;0.50;0.10;;;15.40;1.00;;;;;;4891021;29;20448;-72
2023/10/30 14:09:36;;;;;;;0.60;0.20;;;15.30;1.00;;;;;;4891858;29;20885;-73
2023/10/30 14:12:04;;;;;;;0.60;0.10;;;15.30;1.00;;;;;;4879232;29;20479;-73
2023/10/30 14:14:32;;;;;;;0.50;0.10;;;15.40;1.00;;;;;;4889981;29;20458;-73
2023/10/30 14:17:01;;;;;;;0.60;0.10;;;15.40;1.00;;;;;;4886036;29;20486;-73
2023/10/30 14:19:29;;;;;;;0.60;0.10;;;15.40;1.00;;;;;;4887520;29;20528;-72
2023/10/30 14:21:57;;;;;;;0.60;0.10;;;15.40;1.00;;;;;;4890147;29;20505;-73
2023/10/30 14:24:25;;;;;;;0.50;0.10;;;15.40;1.00;;;;;;4905183;29;20545;-74
2023/10/30 14:26:53;;;;;;;0.60;0.20;;;15.40;1.00;;;;;;4904525;29;20547;-73
2023/10/30 14:29:21;;;;;;;0.60;0.10;;;15.40;1.00;;;;;;4901014;29;20457;-73
2023/10/30 14:31:49;;;;;;;0.50;0.10;;;15.40;1.00;;;;;;4889168;29;20466;-73
2023/10/30 14:34:18;;;;;;;0.60;0.10;;;15.40;1.00;;;;;;4904682;29;20496;-73
2023/10/30 14:36:46;;;;;;;0.60;0.20;;;15.40;1.00;;;;;;4888522;29;20513;-72
2023/10/30 14:39:14;;;;;;;0.60;0.10;;;15.40;1.00;;;;;;4884168;29;20545;-73
2023/10/30 14:41:45;;;;;;;0.60;0.10;;;15.40;1.00;;;;;;4880961;29;20464;-72
2023/10/30 14:44:13;;;;;;;0.60;0.10;;;15.40;1.00;;;;;;4892288;29;20976;-74
2023/10/30 14:46:41;;;;;;;0.60;0.10;;;15.40;1.00;;;;;;4891793;29;20492;-72
2023/10/30 14:49:09;;;;;;;0.57;0.10;;;17.50;1.00;;;;;;4891800;29;21023;-74
2023/10/30 14:51:38;;;;;;;0.60;0.10;;;15.30;1.00;;;;;;4891646;29;20512;-73
2023/10/30 14:54:06;;;;;;;0.60;0.10;;;15.30;1.00;;;;;;4884712;29;20489;-73
2023/10/30 14:56:34;;;;;;;0.60;0.10;;;15.30;1.00;;;;;;4899465;29;21018;-73
2023/10/30 14:59:02;;;;;;;0.60;0.10;;;15.30;1.00;;;;;;4889270;29;20457;-72
2023/10/30 15:01:30;;;;;;;0.60;0.10;;;15.30;1.00;;;;;;4880577;29;20624;-73
2023/10/30 15:03:58;;;;;;;0.60;0.10;;;15.30;1.00;;;;;;4897694;29;20964;-73
2023/10/30 15:06:26;;;;;;;0.60;0.10;;;15.30;1.00;;;;;;4891599;29;20463;-72
2023/10/30 15:08:55;;;;;;;1.70;1.60;;;15.30;1.00;;;;;;4898864;29;20967;-74
2023/10/30 15:11:23;;;;;;;0.60;0.10;;;15.30;1.00;;;;;;4891089;29;20477;-73
2023/10/30 15:13:51;;;;;;;0.60;0.10;;;15.20;1.00;;;;;;4891454;29;21009;-72
2023/10/30 15:16:19;;;;;;;0.60;0.30;;;15.10;1.00;;;;;;4891372;29;20468;-72
2023/10/30 15:18:47;;;;;;;3.03;0.40;;;15.10;1.00;;;;;;4890672;29;20509;-72
2023/10/30 15:21:16;;;;;;;0.53;0.10;;;15.10;1.00;;;;;;4886842;29;20489;-72
2023/10/30 15:23:44;;;;;;;0.60;0.10;;;;;;;;;;4894994;29;20912;-71
2023/10/30 15:26:14;;;;;;;0.60;0.10;;;15.20;1.00;;;;;;4887626;29;20738;-72
2023/10/30 15:28:41;;;;;;;0.60;0.10;;;15.10;1.00;;;;;;4894389;29;20976;-73
2023/10/30 15:31:10;;;;;;;0.60;0.10;;;15.10;1.00;;;;;;4887959;29;20469;-72
2023/10/30 15:33:38;;;;;;;0.50;0.10;;;15.00;1.00;;;;;;4891804;29;20497;-73
2023/10/30 15:36:07;;;;;;;0.60;0.10;;;15.00;1.00;;;;;;4897665;29;20464;-72
2023/10/30 15:38:35;;;;;;;0.57;0.10;;;15.10;1.00;;;;;;4884455;29;20462;-72
2023/10/30 15:41:03;;;;;;;0.60;0.10;;;15.10;1.00;;;;;;4889673;29;20511;-72
2023/10/30 15:43:33;;;;;;;0.60;0.10;;;15.20;1.00;;;;;;4898317;29;20535;-72
2023/10/30 15:46:00;;;;;;;0.50;0.10;;;15.10;1.00;;;;;;4880971;29;20990;-72
2023/10/30 15:48:28;;;;;;;0.53;0.10;;;15.10;1.00;;;;;;4887474;29;20880;-72
2023/10/30 15:50:56;;;;;;;0.53;0.10;;;15.00;1.00;;;;;;4895983;29;20477;-72
2023/10/30 15:53:25;;;;;;;0.50;0.10;;;15.00;1.00;;;;;;4890349;29;20492;-72
2023/10/30 15:55:57;;;;;;;0.50;0.10;;;14.90;1.00;;;;;;4890917;29;20461;-73
2023/10/30 15:58:30;;;;;;;0.50;0.10;;;15.00;1.00;;;;;;4890639;29;20492;-72
2023/10/30 16:01:02;;;;;;;0.60;0.10;;;15.00;1.00;;;;;;4882879;29;20930;-73
2023/10/30 16:03:30;;;;;;;0.60;0.10;;;15.10;1.00;;;;;;4885121;29;20849;-71
2023/10/30 16:05:59;;;;;;;0.60;0.10;;;15.10;1.00;;;;;;4889689;29;20510;-72
2023/10/30 16:08:30;;;;;;;0.60;0.10;;;15.10;1.00;;;;;;4899175;29;21056;-73
2023/10/30 16:11:01;;;;;;;0.50;0.10;;;15.00;1.00;;;;;;4890626;29;20473;-73
2023/10/30 16:13:32;;;;;;;0.60;0.10;;;;;;;;;;4892665;29;20579;-72
2023/10/30 16:16:05;;;;;;;0.60;0.10;;;15.00;1.00;;;;;;4894533;29;20456;-72
2023/10/30 16:18:34;;;;;;;0.60;0.10;;;15.00;1.00;;;;;;4887481;29;20465;-73
2023/10/30 16:21:02;;;;;;;0.50;0.10;;;15.00;1.00;;;;;;4881669;29;20476;-72
2023/10/30 16:23:34;;;;;;;0.50;0.10;;;;;;;;;;4898894;29;20505;-71
2023/10/30 16:26:02;;;;;;;0.50;0.10;;;15.00;1.00;;;;;;4882713;29;20449;-73
2023/10/30 16:28:30;;;;;;;0.50;0.10;;;15.00;1.00;;;;;;4892579;29;20548;-72
2023/10/30 16:30:58;;;;;;;0.60;0.10;;;15.10;1.00;;;;;;4880516;29;20471;-73
2023/10/30 16:33:27;;;;;;;0.60;0.10;;;15.10;1.00;;;;;;4890636;29;20518;-72
2023/10/30 16:35:56;;;;;;;0.53;0.10;;;15.00;1.00;;;;;;4895664;29;20445;-72
2023/10/30 16:38:25;;;;;;;0.60;0.10;;;15.00;1.00;;;;;;4885659;29;20459;-73
2023/10/30 16:40:53;;;;;;;0.50;0.10;;;18.00;1.00;;;;;;4886360;29;20480;-73
2023/10/30 16:43:21;;;;;;;0.60;0.10;;;14.90;1.00;;;;;;4885698;29;20965;-73
2023/10/30 16:45:49;;;;;;;0.60;0.10;;;14.90;1.00;;;;;;4885890;29;20461;-73
2023/10/30 16:48:18;;;;;;;1.73;1.63;;;14.90;1.00;;;;;;4897996;29;20473;-73
2023/10/30 16:50:48;;;;;;;0.60;0.13;;;15.00;1.00;;;;;;4898734;29;20469;-72
2023/10/30 16:53:16;;;;;;;0.57;0.10;;;15.00;1.00;;;;;;4891304;29;20444;-73
2023/10/30 16:55:44;;;;;;;0.60;0.10;;;14.90;1.00;;;;;;4889786;29;20575;-73
2023/10/30 16:58:14;;;;;;;0.60;0.10;;;14.90;1.00;;;;;;4881890;29;20453;-72
2023/10/30 17:00:43;;;;;;;0.50;0.10;;;14.90;1.00;;;;;;4896223;29;20491;-72
2023/10/30 17:03:14;;;;;;;0.60;0.10;;;14.90;1.00;;;;;;4879560;29;20486;-73
2023/10/30 17:05:43;;;;;;;0.50;0.10;;;14.90;1.00;;;;;;4878907;29;20527;-73
2023/10/30 17:08:12;;;;;;;0.60;0.10;;;15.00;1.00;;;;;;4889800;29;20456;-73
2023/10/30 17:10:40;;;;;;;0.60;0.37;;;15.00;1.00;;;;;;4890531;29;20536;-73